Time;durP1;ratioP1;P1;durP2;ratioP2;P2;SDS_P1;SDS_P2;PMS_P1;PMS_P2;Temp;Humidity;BMP_temperature;BMP_pressure;BME280_temperature;BME280_humidity;BME280_pressure;Samples;Min_cycle;Max_cycle;Signal;HPM_P1;HPM_P2
2021/03/18 00:00:55;;;;;;;8.80;3.75;;;3.90;79.00;;;;;;5125333;27;27390;-41
2021/03/18 00:03:41;;;;;;;3.75;3.05;;;3.90;79.00;;;;;;5124961;27;27417;-41
2021/03/18 00:06:25;;;;;;;7.65;3.75;;;3.90;79.00;;;;;;5124658;27;27439;-42
2021/03/18 00:09:11;;;;;;;5.47;3.40;;;3.90;79.00;;;;;;5124938;27;27434;-41
2021/03/18 00:11:55;;;;;;;5.10;3.13;;;3.90;78.80;;;;;;5124890;27;27528;-41
2021/03/18 00:14:40;;;;;;;4.47;3.15;;;3.90;78.90;;;;;;5124813;27;27445;-42
2021/03/18 00:17:24;;;;;;;4.72;3.35;;;3.80;78.70;;;;;;5123982;27;27385;-42
2021/03/18 00:20:11;;;;;;;4.57;2.90;;;3.80;78.80;;;;;;5125094;27;27323;-38
2021/03/18 00:22:55;;;;;;;4.72;2.67;;;3.80;78.80;;;;;;5124738;27;27437;-42
2021/03/18 00:25:40;;;;;;;5.63;3.50;;;3.80;78.80;;;;;;5124486;27;27407;-41
2021/03/18 00:28:24;;;;;;;4.80;3.53;;;3.80;78.90;;;;;;5124978;27;27421;-41
2021/03/18 00:31:09;;;;;;;3.88;3.10;;;3.70;78.80;;;;;;5125019;27;27385;-41
2021/03/18 00:33:54;;;;;;;4.75;3.30;;;3.70;78.70;;;;;;5124897;27;27308;-42
2021/03/18 00:36:39;;;;;;;5.13;2.97;;;3.70;78.80;;;;;;5120481;27;27393;-41
2021/03/18 00:39:23;;;;;;;4.65;3.03;;;3.70;78.80;;;;;;5128429;27;27331;-41
2021/03/18 00:42:07;;;;;;;6.32;3.53;;;3.60;78.70;;;;;;5128150;27;27343;-41
2021/03/18 00:44:52;;;;;;;6.97;3.60;;;3.60;78.80;;;;;;5125637;27;27356;-40
2021/03/18 00:47:37;;;;;;;5.85;3.17;;;3.60;78.80;;;;;;5124719;27;27381;-42
2021/03/18 00:50:50;;;;;;;6.10;2.75;;;3.50;78.80;;;;;;5124221;27;27409;-41
2021/03/18 00:53:43;;;;;;;4.30;3.00;;;3.50;78.90;;;;;;5124166;27;27421;-41
2021/03/18 00:56:28;;;;;;;5.90;3.47;;;3.50;78.90;;;;;;5126977;27;27423;-41
2021/03/18 00:59:18;;;;;;;4.20;2.90;;;3.50;79.10;;;;;;5123769;27;27392;-41
2021/03/18 01:02:03;;;;;;;5.55;3.03;;;3.50;79.20;;;;;;5124728;27;27429;-41
2021/03/18 01:04:48;;;;;;;5.20;3.50;;;3.50;79.30;;;;;;5123762;27;27428;-41
2021/03/18 01:07:32;;;;;;;4.30;3.20;;;3.50;79.30;;;;;;5127723;27;27410;-41
2021/03/18 01:10:16;;;;;;;7.13;4.38;;;3.50;79.50;;;;;;5126906;27;27343;-41
2021/03/18 01:13:01;;;;;;;7.55;2.92;;;3.40;79.50;;;;;;5127347;27;27340;-41
2021/03/18 01:15:53;;;;;;;6.07;3.75;;;3.40;79.50;;;;;;5127983;27;27382;-40
2021/03/18 01:18:42;;;;;;;4.55;3.03;;;3.40;79.60;;;;;;5127468;27;27434;-41
2021/03/18 01:21:32;;;;;;;4.35;3.00;;;3.40;79.50;;;;;;5127417;27;27369;-41
2021/03/18 01:24:16;;;;;;;6.43;3.08;;;3.50;79.70;;;;;;5123619;27;27407;-41
2021/03/18 01:27:00;;;;;;;5.93;3.50;;;3.40;79.60;;;;;;5127143;27;27016;-41
2021/03/18 01:29:45;;;;;;;4.30;2.90;;;3.40;79.70;;;;;;5126909;27;27503;-41
2021/03/18 01:32:29;;;;;;;5.53;3.50;;;3.40;79.90;;;;;;5127572;27;27393;-41
2021/03/18 01:35:16;;;;;;;5.45;3.55;;;3.40;79.90;;;;;;5127585;27;27340;-41
2021/03/18 01:38:01;;;;;;;4.57;3.10;;;3.40;80.00;;;;;;5127229;27;27405;-41
2021/03/18 01:40:45;;;;;;;9.75;3.72;;;3.40;80.00;;;;;;5126965;27;27522;-42
2021/03/18 01:43:30;;;;;;;5.57;3.45;;;3.40;80.10;;;;;;5126594;27;27895;-41
2021/03/18 01:46:14;;;;;;;7.05;5.07;;;3.40;80.10;;;;;;5126896;27;27393;-42
2021/03/18 01:48:59;;;;;;;4.88;3.33;;;3.40;80.20;;;;;;5126760;27;27409;-41
2021/03/18 01:51:44;;;;;;;5.13;3.15;;;3.40;80.20;;;;;;5127069;27;27403;-41
2021/03/18 01:54:29;;;;;;;11.60;3.40;;;3.40;80.10;;;;;;5126902;27;27381;-42
2021/03/18 01:57:13;;;;;;;5.68;3.20;;;3.50;80.20;;;;;;5123911;27;27389;-41
2021/03/18 01:59:58;;;;;;;6.47;3.63;;;3.50;80.30;;;;;;5123965;27;27333;-41
2021/03/18 02:02:42;;;;;;;5.00;3.50;;;3.40;80.20;;;;;;5126403;27;27385;-40
2021/03/18 02:05:27;;;;;;;8.23;3.92;;;3.50;80.30;;;;;;5123567;27;27366;-41
2021/03/18 02:08:12;;;;;;;4.68;3.58;;;3.50;80.30;;;;;;5127043;27;27405;-41
2021/03/18 02:10:57;;;;;;;4.72;3.22;;;3.40;80.20;;;;;;5126296;27;27395;-42
2021/03/18 02:13:41;;;;;;;8.48;3.55;;;3.50;80.30;;;;;;5127013;27;26864;-42
2021/03/18 02:16:27;;;;;;;6.00;3.47;;;3.50;80.30;;;;;;5125905;27;27964;-41
2021/03/18 02:19:37;;;;;;;5.05;3.33;;;3.50;80.20;;;;;;5126525;27;27381;-41
2021/03/18 02:22:42;;;;;;;5.32;3.40;;;3.50;80.30;;;;;;5126558;27;27459;-42
2021/03/18 02:25:33;;;;;;;7.03;3.45;;;3.50;80.30;;;;;;5123063;27;27441;-41
2021/03/18 02:28:27;;;;;;;6.60;3.60;;;3.50;80.30;;;;;;5125683;27;27805;-41
2021/03/18 02:31:14;;;;;;;6.20;4.00;;;3.50;80.30;;;;;;5126673;27;27354;-41
2021/03/18 02:34:16;;;;;;;6.78;3.85;;;3.50;80.20;;;;;;5125912;27;27427;-41
2021/03/18 02:37:07;;;;;;;7.25;3.80;;;3.50;80.20;;;;;;5126339;27;27380;-41
2021/03/18 02:40:05;;;;;;;4.05;3.38;;;3.50;80.20;;;;;;5126462;27;27860;-41
2021/03/18 02:42:54;;;;;;;7.70;4.38;;;3.50;80.20;;;;;;5126459;27;27327;-41
2021/03/18 02:45:49;;;;;;;7.25;3.17;;;3.50;80.20;;;;;;5126379;27;27350;-41
2021/03/18 02:48:36;;;;;;;6.15;3.28;;;3.40;80.20;;;;;;5126399;27;27346;-42
2021/03/18 02:51:20;;;;;;;5.60;3.40;;;3.50;80.30;;;;;;5125992;27;27459;-42
2021/03/18 02:54:06;;;;;;;5.32;3.58;;;3.40;80.30;;;;;;5125252;27;27500;-39
2021/03/18 02:56:51;;;;;;;5.53;3.60;;;3.40;80.30;;;;;;5126000;27;27418;-42
2021/03/18 02:59:38;;;;;;;6.68;3.33;;;3.50;80.30;;;;;;5110082;27;27462;-41
2021/03/18 03:02:29;;;;;;;7.50;3.83;;;3.40;80.20;;;;;;5125824;27;27961;-42
2021/03/18 03:05:14;;;;;;;4.80;3.45;;;3.40;80.20;;;;;;5110822;27;27389;-42
2021/03/18 03:07:59;;;;;;;4.05;3.17;;;3.50;80.20;;;;;;5110625;27;27366;-41
2021/03/18 03:10:45;;;;;;;6.72;3.63;;;3.40;80.20;;;;;;5125300;27;27385;-41
2021/03/18 03:13:31;;;;;;;6.25;3.15;;;3.40;80.30;;;;;;5122681;27;27380;-41
2021/03/18 03:16:18;;;;;;;4.75;3.45;;;3.50;80.30;;;;;;5125651;27;27455;-41
2021/03/18 03:19:03;;;;;;;6.45;3.90;;;3.40;80.30;;;;;;5125898;27;27477;-41
2021/03/18 03:21:48;;;;;;;5.65;3.20;;;3.40;80.30;;;;;;5125926;27;27399;-42
2021/03/18 03:24:36;;;;;;;8.43;3.55;;;3.40;80.30;;;;;;5121742;27;27401;-39
2021/03/18 03:27:21;;;;;;;5.05;3.75;;;3.40;80.30;;;;;;5124949;27;27439;-42
2021/03/18 03:30:07;;;;;;;7.15;3.20;;;3.40;80.30;;;;;;5107325;27;27371;-42
2021/03/18 03:32:52;;;;;;;7.35;3.15;;;3.40;80.30;;;;;;5125681;27;27335;-42
2021/03/18 03:35:37;;;;;;;7.57;4.10;;;3.40;80.30;;;;;;5125318;27;27331;-41
2021/03/18 03:38:21;;;;;;;4.00;3.25;;;3.40;80.30;;;;;;5125287;27;27409;-42
2021/03/18 03:41:06;;;;;;;5.78;3.55;;;3.40;80.30;;;;;;5125335;27;27413;-41
2021/03/18 03:43:51;;;;;;;5.05;3.15;;;3.40;80.30;;;;;;5125300;27;27327;-42
2021/03/18 03:46:36;;;;;;;6.13;3.42;;;3.40;80.30;;;;;;5124952;27;27402;-41
2021/03/18 03:49:21;;;;;;;7.70;3.40;;;3.40;80.30;;;;;;5125483;27;27346;-41
2021/03/18 03:52:35;;;;;;;5.72;3.72;;;3.40;80.30;;;;;;5125494;27;27451;-41
2021/03/18 03:55:33;;;;;;;5.20;2.97;;;3.40;80.40;;;;;;5124546;27;27695;-41
2021/03/18 03:58:40;;;;;;;4.78;3.33;;;3.40;80.40;;;;;;5125058;27;27409;-41
2021/03/18 08:08:08;;;;;;;14.10;7.30;;;8.10;66.10;;;;;;5141146;27;27350;-43
2021/03/18 08:11:04;;;;;;;12.45;7.30;;;8.70;64.60;;;;;;5103154;27;27540;-40
2021/03/18 08:13:49;;;;;;;11.68;6.80;;;9.30;62.80;;;;;;5107516;27;27333;-41
2021/03/18 08:16:33;;;;;;;12.30;7.20;;;9.70;61.20;;;;;;5103111;27;27422;-42
2021/03/18 08:19:19;;;;;;;12.57;7.45;;;10.20;60.00;;;;;;5121870;27;27869;-38
2021/03/18 08:22:03;;;;;;;10.60;6.55;;;10.80;59.00;;;;;;5121823;27;27426;-41
2021/03/18 08:24:48;;;;;;;9.55;7.10;;;11.20;57.80;;;;;;5121976;27;27360;-43
2021/03/18 08:27:32;;;;;;;11.43;7.05;;;11.70;56.70;;;;;;5106015;27;27421;-43
2021/03/18 08:30:24;;;;;;;12.00;7.95;;;12.40;55.40;;;;;;5121793;27;27337;-44
2021/03/18 08:33:34;;;;;;;13.90;7.25;;;12.60;54.60;;;;;;5121645;27;27474;-42
2021/03/18 08:36:24;;;;;;;10.82;7.40;;;12.50;55.30;;;;;;5118759;27;27367;-41
2021/03/18 08:39:12;;;;;;;13.52;7.35;;;13.00;54.30;;;;;;5121658;27;27431;-41
2021/03/18 08:41:56;;;;;;;9.75;6.97;;;13.20;53.90;;;;;;5121594;27;27333;-41
2021/03/18 08:44:42;;;;;;;10.35;6.55;;;13.80;53.00;;;;;;5121450;27;27418;-41
2021/03/18 08:47:42;;;;;;;9.93;6.63;;;13.90;52.60;;;;;;5121266;27;27344;-44
2021/03/18 08:50:27;;;;;;;8.98;6.30;;;13.60;53.20;;;;;;5118117;27;27456;-41
2021/03/18 08:53:26;;;;;;;9.55;6.93;;;13.00;54.60;;;;;;5121323;27;27450;-41
2021/03/18 08:56:11;;;;;;;10.05;6.72;;;12.50;55.90;;;;;;5121322;27;27374;-41
2021/03/18 08:58:57;;;;;;;8.80;6.30;;;12.00;56.70;;;;;;5105769;27;27463;-41
2021/03/18 09:01:41;;;;;;;10.90;7.25;;;11.50;57.70;;;;;;5121308;27;27336;-42
2021/03/18 09:04:37;;;;;;;10.98;7.10;;;11.20;58.20;;;;;;5119777;27;27411;-42
2021/03/18 09:07:33;;;;;;;10.52;7.28;;;11.50;57.90;;;;;;5106196;27;27363;-48
2021/03/18 09:10:25;;;;;;;9.57;6.47;;;13.00;55.70;;;;;;5100389;28;27333;-42
2021/03/18 09:13:14;;;;;;;10.20;6.53;;;14.50;52.70;;;;;;5100255;28;27453;-42
2021/03/18 09:15:59;;;;;;;8.77;6.88;;;15.10;52.00;;;;;;5100202;28;27348;-42
2021/03/18 09:18:43;;;;;;;8.50;6.57;;;16.20;50.00;;;;;;5075549;28;27411;-41
2021/03/18 09:21:36;;;;;;;10.18;6.45;;;17.20;48.20;;;;;;5071875;28;27394;-45
2021/03/18 09:24:21;;;;;;;9.20;6.05;;;17.00;48.50;;;;;;5086860;28;27325;-42
2021/03/18 09:27:07;;;;;;;7.55;6.45;;;16.30;50.10;;;;;;5083106;28;27491;-43
2021/03/18 09:29:51;;;;;;;7.47;6.22;;;16.00;51.00;;;;;;5085865;28;27412;-42
2021/03/18 09:32:36;;;;;;;8.63;6.28;;;16.10;51.10;;;;;;5086950;28;27388;-41
2021/03/18 09:35:20;;;;;;;9.77;6.85;;;17.00;49.10;;;;;;5086541;28;27485;-45
2021/03/18 09:38:05;;;;;;;8.00;6.28;;;18.00;46.80;;;;;;5086404;28;27869;-46
2021/03/18 09:40:50;;;;;;;7.75;6.43;;;18.70;45.70;;;;;;5071074;28;27492;-48
2021/03/18 09:43:34;;;;;;;8.55;5.85;;;19.50;44.40;;;;;;5086158;28;27451;-46
2021/03/18 09:46:18;;;;;;;9.90;7.18;;;20.20;43.40;;;;;;5086304;28;27483;-42
2021/03/18 09:49:03;;;;;;;14.88;6.47;;;21.10;42.40;;;;;;5086296;28;27877;-43
2021/03/18 09:51:48;;;;;;;13.27;8.45;;;21.80;40.10;;;;;;5085815;28;27467;-43
2021/03/18 09:54:33;;;;;;;8.50;7.18;;;21.60;35.50;;;;;;5085941;28;27409;-42
2021/03/18 09:57:18;;;;;;;10.07;6.25;;;21.20;37.70;;;;;;5083572;28;27460;-38
2021/03/18 10:00:03;;;;;;;10.60;7.00;;;20.50;39.70;;;;;;5086071;28;27854;-40
2021/03/18 10:02:49;;;;;;;14.65;6.80;;;19.70;41.80;;;;;;5085607;28;27443;-46
2021/03/18 10:05:34;;;;;;;9.57;6.50;;;18.80;42.70;;;;;;5071111;28;27483;-44
2021/03/18 10:08:23;;;;;;;8.52;6.20;;;18.10;45.20;;;;;;5082825;28;27435;-41
2021/03/18 10:11:13;;;;;;;8.75;6.28;;;17.50;46.60;;;;;;5085726;28;27336;-45
2021/03/18 10:13:57;;;;;;;10.35;6.13;;;17.00;47.90;;;;;;5085832;28;27404;-44
2021/03/18 10:16:46;;;;;;;8.00;5.90;;;16.70;48.30;;;;;;5039357;28;27515;-41
2021/03/18 10:19:32;;;;;;;7.22;5.55;;;16.40;48.40;;;;;;5057256;28;27503;-42
2021/03/18 10:22:17;;;;;;;8.13;5.57;;;16.20;49.50;;;;;;5085784;28;27427;-41
2021/03/18 10:25:10;;;;;;;6.80;5.47;;;15.90;49.40;;;;;;5070304;28;27386;-38
2021/03/18 10:28:00;;;;;;;7.50;5.50;;;15.70;50.00;;;;;;5085615;28;27412;-41
2021/03/18 10:30:48;;;;;;;6.82;5.70;;;15.60;50.50;;;;;;5084392;28;27373;-40
2021/03/18 10:33:34;;;;;;;7.68;5.32;;;15.60;50.80;;;;;;5085664;28;27419;-37
2021/03/18 10:36:40;;;;;;;5.18;4.45;;;15.60;50.80;;;;;;5085590;28;27488;-40
2021/03/18 10:39:25;;;;;;;6.80;5.43;;;15.80;50.60;;;;;;5085356;28;27452;-42
2021/03/18 10:42:10;;;;;;;8.32;5.18;;;16.10;50.00;;;;;;5085277;28;27404;-41
2021/03/18 10:44:54;;;;;;;5.88;4.82;;;17.00;48.50;;;;;;5082223;28;27446;-41
2021/03/18 10:47:45;;;;;;;14.35;5.45;;;18.50;46.50;;;;;;5084891;28;27515;-43
2021/03/18 10:50:34;;;;;;;7.43;4.70;;;20.30;43.90;;;;;;5085232;28;27358;-41
2021/03/18 10:53:20;;;;;;;5.65;3.85;;;22.00;41.40;;;;;;5085385;28;27409;-42
2021/03/18 10:56:06;;;;;;;5.57;3.75;;;23.10;38.80;;;;;;5085220;28;27876;-44
2021/03/18 10:58:51;;;;;;;7.22;3.92;;;23.30;37.90;;;;;;5085194;28;27503;-42
2021/03/18 11:01:36;;;;;;;5.95;3.75;;;23.30;38.10;;;;;;5070159;28;27365;-45
2021/03/18 11:04:20;;;;;;;5.85;3.40;;;23.10;38.20;;;;;;5084902;28;27601;-45
2021/03/18 11:07:08;;;;;;;3.97;3.13;;;23.20;38.70;;;;;;5084157;28;27490;-45
2021/03/18 11:10:31;;;;;;;4.10;3.50;;;23.20;38.80;;;;;;5085149;28;27326;-45
2021/03/18 11:13:26;;;;;;;4.63;3.15;;;22.80;39.20;;;;;;5046853;28;27506;-42
2021/03/18 11:16:11;;;;;;;4.45;3.80;;;22.30;40.00;;;;;;5085064;28;26989;-45
2021/03/18 11:19:00;;;;;;;6.63;2.92;;;21.60;41.30;;;;;;5084289;28;27893;-41
2021/03/18 11:21:46;;;;;;;5.32;2.92;;;20.80;42.00;;;;;;5084885;28;27321;-42
2021/03/18 11:24:31;;;;;;;4.65;3.03;;;20.10;43.20;;;;;;5084690;28;27383;-44
2021/03/18 11:27:15;;;;;;;4.20;3.17;;;19.40;43.80;;;;;;5084326;28;27387;-41
2021/03/18 11:30:00;;;;;;;5.25;2.88;;;18.80;44.50;;;;;;5081235;28;27328;-40
2021/03/18 11:32:45;;;;;;;4.05;3.00;;;18.30;45.20;;;;;;5084412;28;27337;-43
2021/03/18 11:35:30;;;;;;;3.97;3.13;;;17.80;46.00;;;;;;5084668;28;27420;-42
2021/03/18 11:38:14;;;;;;;4.00;3.10;;;17.50;46.50;;;;;;5084698;28;27402;-41
2021/03/18 11:40:59;;;;;;;5.15;3.03;;;17.20;47.00;;;;;;5083972;28;27353;-40
2021/03/18 11:43:44;;;;;;;4.60;2.88;;;16.90;47.30;;;;;;5084393;28;27468;-39
2021/03/18 11:46:28;;;;;;;4.22;3.22;;;16.70;47.70;;;;;;5083952;28;27664;-41
2021/03/18 11:49:13;;;;;;;4.32;3.05;;;16.60;47.80;;;;;;5084261;28;27349;-40
2021/03/18 11:51:57;;;;;;;4.72;3.30;;;16.50;47.60;;;;;;5084194;28;27896;-42
2021/03/18 11:54:42;;;;;;;7.78;3.92;;;16.40;47.50;;;;;;5084328;28;27324;-40
2021/03/18 11:57:27;;;;;;;7.93;3.80;;;16.30;47.60;;;;;;5084308;28;27384;-41
2021/03/18 12:00:12;;;;;;;5.40;3.63;;;16.30;47.50;;;;;;5084061;28;27374;-41
2021/03/18 12:03:00;;;;;;;6.18;3.33;;;16.20;47.50;;;;;;5084339;28;27336;-41
2021/03/18 12:05:45;;;;;;;4.78;3.67;;;16.30;47.60;;;;;;5083866;28;27341;-37
2021/03/18 12:08:29;;;;;;;6.85;3.70;;;16.30;47.60;;;;;;5080775;28;27389;-41
2021/03/18 12:11:14;;;;;;;4.68;3.47;;;16.40;47.20;;;;;;5084368;28;27321;-43
2021/03/18 12:13:58;;;;;;;7.55;3.78;;;16.40;47.00;;;;;;5083628;28;27392;-42
2021/03/18 12:16:43;;;;;;;5.50;3.50;;;16.40;46.90;;;;;;5083926;28;27391;-40
2021/03/18 12:19:28;;;;;;;5.28;3.60;;;16.40;46.80;;;;;;5084241;28;27347;-41
2021/03/18 12:22:12;;;;;;;4.35;3.55;;;16.30;47.00;;;;;;5084255;28;27338;-42
2021/03/18 12:24:57;;;;;;;7.50;3.35;;;16.20;46.90;;;;;;5084018;28;27415;-40
2021/03/18 12:27:41;;;;;;;6.55;2.83;;;16.10;47.10;;;;;;5083665;28;27411;-40
2021/03/18 12:30:26;;;;;;;6.22;3.20;;;16.10;47.30;;;;;;5084067;28;27412;-42
2021/03/18 12:33:10;;;;;;;4.22;3.13;;;16.00;46.90;;;;;;5083731;28;27452;-40
2021/03/18 12:35:55;;;;;;;5.60;3.33;;;16.00;47.10;;;;;;5083900;28;27444;-39
2021/03/18 12:38:39;;;;;;;4.80;3.28;;;16.00;47.50;;;;;;5083816;28;27439;-41
2021/03/18 12:41:24;;;;;;;6.32;3.55;;;16.00;47.20;;;;;;5083432;28;27452;-39
2021/03/18 12:44:08;;;;;;;4.28;3.45;;;16.20;47.60;;;;;;5083813;28;27458;-40
2021/03/18 12:46:53;;;;;;;3.63;2.85;;;16.20;46.60;;;;;;5083256;28;27906;-39
2021/03/18 12:49:38;;;;;;;9.93;3.50;;;16.30;46.70;;;;;;5083615;28;27494;-40
2021/03/18 12:52:22;;;;;;;4.38;2.83;;;16.30;46.90;;;;;;5083668;28;27480;-39
2021/03/18 12:55:08;;;;;;;6.43;3.10;;;16.40;46.90;;;;;;5087333;28;27401;-40
2021/03/18 12:57:56;;;;;;;6.22;2.80;;;16.50;47.10;;;;;;5086858;28;27461;-41
2021/03/18 13:00:41;;;;;;;4.47;2.97;;;16.50;46.80;;;;;;5087096;28;27424;-42
2021/03/18 13:03:25;;;;;;;3.83;3.10;;;16.60;46.80;;;;;;5087203;28;27491;-40
2021/03/18 13:06:10;;;;;;;3.72;2.90;;;16.60;46.80;;;;;;5086459;28;27723;-41
2021/03/18 13:08:54;;;;;;;3.38;2.90;;;16.60;47.30;;;;;;5086337;28;27494;-39
2021/03/18 13:11:38;;;;;;;4.60;3.38;;;16.60;46.70;;;;;;5086637;28;27454;-40
2021/03/18 13:14:23;;;;;;;2.83;2.50;;;16.60;46.50;;;;;;5083384;28;27412;-40
2021/03/18 13:17:08;;;;;;;6.80;2.90;;;16.70;46.90;;;;;;5086860;28;27474;-40
2021/03/18 13:19:52;;;;;;;4.80;2.85;;;16.80;46.40;;;;;;5068440;28;27474;-40
2021/03/18 13:22:37;;;;;;;6.57;4.05;;;17.30;46.20;;;;;;5071257;28;27427;-39
2021/03/18 13:25:22;;;;;;;2.70;2.40;;;17.70;45.50;;;;;;5086737;28;27479;-41
2021/03/18 13:28:07;;;;;;;6.25;4.38;;;18.00;45.20;;;;;;5071299;28;27415;-39
2021/03/18 13:30:51;;;;;;;8.50;3.63;;;18.50;40.30;;;;;;5086595;28;27889;-56
2021/03/18 13:33:36;;;;;;;10.35;3.83;;;18.80;40.70;;;;;;5086607;28;27573;-57
2021/03/18 13:36:41;;;;;;;8.18;3.20;;;19.30;41.10;;;;;;5023318;28;27417;-55
2021/03/18 13:39:26;;;;;;;4.50;2.90;;;19.60;41.30;;;;;;5021435;28;27397;-56
2021/03/18 13:42:11;;;;;;;6.15;3.00;;;19.90;42.00;;;;;;5024316;28;27496;-58
2021/03/18 13:44:56;;;;;;;5.15;2.90;;;20.60;41.40;;;;;;5024297;28;27360;-57
2021/03/18 13:47:41;;;;;;;5.53;2.40;;;21.10;40.50;;;;;;5024140;28;27452;-58
2021/03/18 13:50:26;;;;;;;2.47;1.92;;;21.10;40.10;;;;;;5024185;28;27451;-57
2021/03/18 13:53:11;;;;;;;5.32;2.53;;;20.90;40.20;;;;;;5009948;28;27513;-57
2021/03/18 13:55:56;;;;;;;7.78;2.38;;;20.70;39.90;;;;;;5024421;28;27427;-57
2021/03/18 13:58:40;;;;;;;4.22;2.40;;;20.40;41.20;;;;;;5009829;28;27540;-57
2021/03/18 14:01:24;;;;;;;4.03;2.20;;;20.00;41.80;;;;;;5023884;28;27514;-55
2021/03/18 14:04:09;;;;;;;3.55;1.75;;;19.60;41.20;;;;;;5023449;28;27513;-56
2021/03/18 14:06:53;;;;;;;3.15;1.95;;;19.20;41.80;;;;;;5042727;28;27372;-56
2021/03/18 14:09:39;;;;;;;5.88;2.58;;;18.90;42.20;;;;;;5064140;28;27408;-57
2021/03/18 14:12:23;;;;;;;5.50;2.10;;;18.50;42.60;;;;;;5064995;28;27401;-55
2021/03/18 14:15:10;;;;;;;2.97;1.92;;;18.30;43.20;;;;;;5084845;28;27348;-57
2021/03/18 14:17:55;;;;;;;2.53;2.00;;;18.00;43.80;;;;;;5085922;28;27309;-57
2021/03/18 14:20:40;;;;;;;3.10;2.00;;;17.70;44.40;;;;;;5085961;28;27395;-56
2021/03/18 14:23:25;;;;;;;3.45;2.20;;;17.50;44.60;;;;;;5084886;28;27358;-57
2021/03/18 14:26:09;;;;;;;3.70;2.17;;;17.50;45.30;;;;;;5085690;28;27869;-57
2021/03/18 14:28:54;;;;;;;3.38;1.80;;;17.60;45.30;;;;;;5085878;28;27391;-57
2021/03/18 14:31:39;;;;;;;3.55;2.10;;;17.70;44.70;;;;;;5085232;28;27327;-57
2021/03/18 14:34:23;;;;;;;5.45;2.30;;;17.70;44.70;;;;;;5085785;28;27348;-57
2021/03/18 14:37:08;;;;;;;3.72;1.90;;;17.50;44.60;;;;;;5085604;28;27338;-56
2021/03/18 14:39:53;;;;;;;3.03;2.20;;;17.20;45.10;;;;;;5085219;28;27523;-57
2021/03/18 14:42:37;;;;;;;4.20;2.10;;;16.90;45.60;;;;;;5085691;28;27410;-57
2021/03/18 14:45:22;;;;;;;3.60;2.33;;;16.50;45.80;;;;;;5085481;28;27382;-56
2021/03/18 14:48:07;;;;;;;4.40;2.20;;;16.30;46.70;;;;;;5085186;28;27413;-56
2021/03/18 14:50:52;;;;;;;4.20;1.70;;;16.30;47.30;;;;;;5085118;28;27387;-57
2021/03/18 14:53:36;;;;;;;2.92;1.92;;;16.60;47.50;;;;;;5085029;28;27499;-57
2021/03/18 14:56:20;;;;;;;2.20;1.90;;;16.90;47.00;;;;;;5084666;28;27403;-57
2021/03/18 14:59:05;;;;;;;3.95;2.17;;;17.30;46.50;;;;;;5085187;28;27928;-57
2021/03/18 15:01:49;;;;;;;2.90;1.88;;;17.60;46.00;;;;;;5084985;28;27422;-57
2021/03/18 15:04:34;;;;;;;1.88;1.60;;;18.00;45.40;;;;;;5084944;28;27498;-55
2021/03/18 15:07:18;;;;;;;3.97;1.55;;;18.30;45.10;;;;;;5082383;28;27427;-57
2021/03/18 15:10:07;;;;;;;2.80;1.55;;;18.60;44.50;;;;;;5085050;28;27465;-58
2021/03/18 15:12:52;;;;;;;3.63;1.75;;;18.80;43.80;;;;;;5084281;28;27425;-58
2021/03/18 15:15:37;;;;;;;3.72;1.70;;;18.90;43.50;;;;;;5084485;28;27430;-57
2021/03/18 15:18:21;;;;;;;3.17;1.45;;;19.00;43.10;;;;;;5084717;28;27408;-58
2021/03/18 15:21:06;;;;;;;2.42;1.33;;;19.10;42.90;;;;;;5084679;28;27977;-58
2021/03/18 15:23:51;;;;;;;3.00;1.40;;;19.10;42.50;;;;;;5084492;28;27427;-58
2021/03/18 15:26:35;;;;;;;2.72;1.40;;;19.00;42.60;;;;;;5084841;28;27411;-57
2021/03/18 15:29:20;;;;;;;2.92;1.55;;;18.90;42.20;;;;;;5084547;28;27411;-58
2021/03/18 15:32:05;;;;;;;4.18;1.88;;;18.60;42.50;;;;;;5084568;28;27457;-57
2021/03/18 15:34:49;;;;;;;2.47;1.42;;;18.20;42.70;;;;;;5084409;28;27411;-56
2021/03/18 15:37:34;;;;;;;2.60;1.50;;;17.80;43.10;;;;;;5084430;28;27477;-56
2021/03/18 15:40:21;;;;;;;1.88;1.40;;;17.50;43.40;;;;;;5084426;28;27489;-55
2021/03/18 15:43:05;;;;;;;2.45;1.80;;;17.00;44.30;;;;;;5084289;28;27979;-56
2021/03/18 15:45:51;;;;;;;2.80;1.60;;;16.60;45.10;;;;;;5083822;28;27451;-57
2021/03/18 15:48:39;;;;;;;2.60;1.50;;;16.20;46.20;;;;;;5084629;28;27415;-55
2021/03/18 15:51:25;;;;;;;3.92;1.52;;;15.90;46.80;;;;;;5080545;28;27370;-56
2021/03/18 15:54:09;;;;;;;2.67;1.48;;;15.50;47.60;;;;;;5081258;28;27377;-57
2021/03/18 15:56:54;;;;;;;1.88;1.55;;;15.40;48.20;;;;;;5084417;28;27339;-57
2021/03/18 15:59:39;;;;;;;3.42;1.42;;;15.20;48.20;;;;;;5083709;28;27354;-52
2021/03/18 16:02:24;;;;;;;2.00;1.55;;;14.90;48.50;;;;;;5084421;28;27321;-56
2021/03/18 16:05:09;;;;;;;2.05;1.58;;;14.70;48.90;;;;;;5080982;28;27378;-56
2021/03/18 16:07:56;;;;;;;3.15;1.27;;;14.50;49.40;;;;;;5082900;28;27407;-56
2021/03/18 16:10:40;;;;;;;1.40;1.10;;;14.40;49.50;;;;;;5084025;28;27382;-56
2021/03/18 16:13:25;;;;;;;2.72;1.25;;;14.20;49.60;;;;;;5083959;28;27331;-55
2021/03/18 16:16:10;;;;;;;1.95;1.33;;;14.10;49.70;;;;;;5083946;28;27328;-56
2021/03/18 16:18:54;;;;;;;2.25;1.35;;;14.00;50.20;;;;;;5083917;28;27324;-56
2021/03/18 16:21:40;;;;;;;2.20;1.48;;;13.80;50.20;;;;;;5082847;28;27402;-55
2021/03/18 16:24:24;;;;;;;2.35;1.42;;;13.80;49.80;;;;;;5069146;28;27372;-56
2021/03/18 16:27:10;;;;;;;2.70;1.52;;;13.70;49.70;;;;;;5083516;28;27957;-55
2021/03/18 16:29:55;;;;;;;1.45;1.35;;;13.50;49.70;;;;;;5086801;28;27457;-55
2021/03/18 16:32:39;;;;;;;2.08;1.42;;;13.20;50.00;;;;;;5087641;28;27317;-54
2021/03/18 16:35:24;;;;;;;2.92;1.63;;;12.90;50.50;;;;;;5087258;28;27381;-53
2021/03/18 16:38:09;;;;;;;4.03;1.83;;;12.60;50.80;;;;;;5087431;28;27951;-52
2021/03/18 16:40:54;;;;;;;2.72;1.95;;;12.40;51.60;;;;;;5087492;28;27323;-55
2021/03/18 16:43:39;;;;;;;2.50;1.70;;;12.10;52.00;;;;;;5087202;28;27331;-53
2021/03/18 16:46:24;;;;;;;3.50;1.50;;;11.90;52.50;;;;;;5087043;28;26930;-54
2021/03/18 16:49:09;;;;;;;3.33;1.70;;;11.70;52.60;;;;;;5084064;28;27334;-50
2021/03/18 16:51:53;;;;;;;3.15;1.98;;;11.40;53.20;;;;;;5087392;28;27395;-52
2021/03/18 16:54:38;;;;;;;3.80;1.85;;;11.20;53.50;;;;;;5087062;28;27398;-54
2021/03/18 16:57:22;;;;;;;2.63;1.80;;;11.00;53.90;;;;;;5087006;28;27371;-52
2021/03/18 17:00:09;;;;;;;3.05;1.92;;;10.90;54.20;;;;;;5087080;28;27926;-53
2021/03/18 17:02:53;;;;;;;2.55;1.75;;;10.70;54.60;;;;;;5087149;28;27371;-49
2021/03/18 17:05:39;;;;;;;1.92;1.67;;;10.50;54.90;;;;;;5087006;28;27363;-52
2021/03/18 17:08:24;;;;;;;2.15;1.80;;;10.40;55.10;;;;;;5087071;28;26990;-53
2021/03/18 17:11:09;;;;;;;3.92;1.75;;;10.30;55.20;;;;;;5086713;28;27308;-55
2021/03/18 17:13:54;;;;;;;6.60;1.90;;;10.10;56.30;;;;;;5083660;28;27382;-53
2021/03/18 17:16:38;;;;;;;11.73;2.42;;;10.00;56.10;;;;;;5086691;28;27397;-51
2021/03/18 17:19:23;;;;;;;7.10;2.63;;;9.90;56.10;;;;;;5083756;28;27362;-50
2021/03/18 17:22:08;;;;;;;3.55;2.10;;;9.70;56.20;;;;;;5086547;28;27954;-54
2021/03/18 17:24:52;;;;;;;9.77;2.22;;;9.60;56.50;;;;;;5086923;28;27336;-50
2021/03/18 17:27:37;;;;;;;2.53;2.08;;;9.40;56.80;;;;;;5086335;28;27477;-52
2021/03/18 17:30:23;;;;;;;5.00;2.28;;;9.30;57.20;;;;;;5086745;28;27454;-55
2021/03/18 17:33:08;;;;;;;3.30;2.10;;;9.10;57.50;;;;;;5083420;28;27366;-51
2021/03/18 17:35:53;;;;;;;3.33;2.10;;;9.00;57.80;;;;;;5086384;28;27410;-52
2021/03/18 17:38:37;;;;;;;2.78;2.03;;;8.90;58.10;;;;;;5085967;28;27447;-54
2021/03/18 17:41:22;;;;;;;7.90;2.70;;;8.70;58.30;;;;;;5086188;28;27368;-54
2021/03/18 17:44:07;;;;;;;7.03;2.20;;;8.60;58.60;;;;;;5086524;28;28067;-55
2021/03/18 17:46:51;;;;;;;4.63;2.53;;;8.50;58.80;;;;;;5085568;28;27498;-53
2021/03/18 17:49:36;;;;;;;5.22;3.00;;;8.40;59.00;;;;;;5086526;28;27395;-54
2021/03/18 17:52:20;;;;;;;3.85;2.42;;;8.30;59.10;;;;;;5086123;28;27469;-55
2021/03/18 17:55:10;;;;;;;5.05;2.38;;;8.10;59.20;;;;;;5086375;28;27427;-50
2021/03/18 17:57:54;;;;;;;6.45;2.60;;;8.10;59.50;;;;;;5085974;28;27394;-54
2021/03/18 18:00:39;;;;;;;6.95;2.67;;;8.00;59.70;;;;;;5085939;28;27419;-54
2021/03/18 18:03:24;;;;;;;3.05;2.38;;;7.80;59.90;;;;;;5082173;28;27337;-52
2021/03/18 18:06:08;;;;;;;5.05;2.10;;;7.80;60.20;;;;;;5081805;28;27630;-50
2021/03/18 18:08:53;;;;;;;5.13;2.53;;;7.70;60.40;;;;;;5065372;28;27361;-54
2021/03/18 18:11:38;;;;;;;3.63;2.78;;;7.60;60.60;;;;;;5065912;28;27337;-54
2021/03/18 18:14:22;;;;;;;3.67;2.63;;;7.50;60.80;;;;;;5062262;28;27333;-54
2021/03/18 18:17:07;;;;;;;3.50;2.60;;;7.40;60.90;;;;;;5065919;28;27854;-52
2021/03/18 18:19:52;;;;;;;4.57;2.53;;;7.30;61.10;;;;;;5065631;28;27485;-52
2021/03/18 18:22:37;;;;;;;3.30;2.35;;;7.20;61.40;;;;;;5065412;28;27424;-49
2021/03/18 18:25:22;;;;;;;4.50;2.60;;;7.10;61.60;;;;;;5065544;28;27468;-52
2021/03/18 18:28:06;;;;;;;5.07;3.17;;;7.00;62.60;;;;;;5064955;28;27421;-50
2021/03/18 18:30:51;;;;;;;4.55;3.40;;;7.00;62.10;;;;;;5065361;28;27471;-53
2021/03/18 18:33:35;;;;;;;6.68;3.60;;;6.90;62.30;;;;;;5047261;28;27349;-53
2021/03/18 18:36:20;;;;;;;6.03;3.90;;;6.80;62.40;;;;;;5064737;28;27420;-49